Portada
METAR-TAF:

METAR-TAF

Aeropuertos :

Odiham, Inglaterra

latitud: 51-14N, longitud: 000-57W, altitud: 123 m

Observación

El informe se hizo hace 1 hora y 14 minutos, a las 02:50 UTC
Viento 3 kt del sur-sureste
Temperatura 12°C
Humedad 71%
Presión 1010 hPa
Visibilidad 10 km o más

METAR: EGVO 030250Z AUTO 16003KT 9999 OVC150/// 12/07 Q1010

Hora: 05:04 (04:04 UTC)

Pronóstico

El informe se hizo hace 5 horas y 41 minutos, a las 22:23 UTC
Pronóstico válido del 03 a las 00 UTC al 03 a las 12 UTC
Viento 3 kt con dirección variable
Visibilidad 10 km o más
sin nubes por debajo de 1500 m y sin presencia de cumulonimbus.
Probabilidad 30% :
Temporalmente
del 03 a las 05 UTC al 03 a las 09 UTC
Visibilidad: 7000 m
lluvia

TAF: EGVO 022223Z 0300/0312 VRB03KT CAVOK PROB30 TEMPO 0305/0309 7000 RA

Observaciones y pronósticos meteorológicos de más de 4000 aeropuertos (mensajes METAR y TAF).

Los puntos amarillos y rojos representan las estaciones disponibles.

Ponga el ratón en el punto deseado para ver el nombre de la estación.

Haga clic para ver las observaciones y los pronósticos meteorológicos.

Para cambiar el mapa : haga clic en los botones verdes con una cruz de color negro para hacer un zoom, en el botón verde con un guión para alejar o en las flechas verdes para mapas adyacentes.


METAR-TAF: